Polymarket Whales

πŸŒ™ β˜€

Trades

Min trade amount: 0 250 1000 2000 5000 10000 50000
Min shares: 0 250 1000 2000 5000 10000 50000
Timestamp Market Taker Maker Type Outcome Direction Amount Shares Price
1709240547000 Bitcoin all time high by Friday? Sell No βœ… $96.00 100.00 0.9600 πŸ“– Tx
1709239963000 Any rug >$1m on Blast today? Sell Yes ❌ $85.27 198.30 0.4300 πŸ“– Tx
1709239862000 Blast exploit by March 7? Sell Yes ❌ $0.16 2.34 0.0700 πŸ“– Tx
1709239485000 Will Azerbaijan invade Armenia before April? Sell Yes ❌ $67.50 750.00 0.0900 πŸ“– Tx
1709239471000 Will BTC hit $80,000 in March? Sell No βœ… $69.60 80.00 0.8700 πŸ“– Tx
1709239165000 Will BTC hit $80,000 in March? Sell Yes ❌ $1.50 15.00 0.1000 πŸ“– Tx
1709238787000 Any Blast rug >$1m by Mar 7? Sell Yes ❌ $159.90 205.00 0.7800 πŸ“– Tx
1709238787000 Any Blast rug >$1m by Mar 7? Buy Yes βœ… $159.90 205.00 0.7800 πŸ“– Tx
1709238588000 Any Blast rug >$1m by Mar 7? Sell No βœ… $47.15 205.00 0.2300 πŸ“– Tx
1709238342000 Kate Middleton appearance by Sunday? Sell Yes ❌ $40.00 1,000.00 0.0400 πŸ“– Tx
1709238234000 Kate Middleton appearance by Sunday? Sell No βœ… $9.50 10.00 0.9500 πŸ“– Tx
1709237923000 Will Bronny James be drafted? Sell Yes ❌ $42.50 250.00 0.1700 πŸ“– Tx
1709237923000 Will Bronny James be drafted? Sell Yes ❌ $85.00 500.00 0.1700 πŸ“– Tx
1709237535000 Bitcoin all time high by next Friday? Sell No βœ… $22.71 36.05 0.6300 πŸ“– Tx
1709235741000 Will Trump appear on Maine primary ballot? Sell No βœ… $2.20 200.00 0.0110 πŸ“– Tx
1709235715000 Will Trump appear on Maine primary ballot? Sell No βœ… $16.50 1,500.00 0.0110 πŸ“– Tx
1709235347000 Will Nick White say "modular" at least 10 times during the debate? Sell No βœ… $123.00 205.00 0.6000 πŸ“– Tx
1709235323000 Will Meltem Demirors say "inflows" at least 5 times during the debate? Sell Yes ❌ $71.75 205.00 0.3500 πŸ“– Tx
1709235311000 Will David Hoffman say the word β€œfundamentals” in the first 5 minutes of the debate? Sell Yes ❌ $59.45 205.00 0.2900 πŸ“– Tx
1709235035000 Bitcoin all time high by Friday? Sell No βœ… $198.85 205.00 0.9700 πŸ“– Tx
1709234434000 Kate Middleton appearance by Sunday? Sell Yes ❌ $40.00 800.00 0.0500 πŸ“– Tx
1709234434000 Kate Middleton appearance by Sunday? Sell No βœ… $760.00 800.00 0.9500 πŸ“– Tx
1709234352000 Blast launch delayed? Sell Yes ❌ $4.44 222.00 0.0200 πŸ“– Tx
1709234003000 Will Trump appear on Colorado primary ballot? Sell No βœ… $5.20 400.00 0.0130 πŸ“– Tx
1709234003000 Will Trump appear on Colorado primary ballot? Buy Yes βœ… $219.11 222.00 0.9870 πŸ“– Tx
1709234003000 Will Trump appear on Colorado primary ballot? Buy No ❌ $8.09 622.00 0.0130 πŸ“– Tx
1709233987000 Will Trump appear on Colorado primary ballot? Buy No ❌ $21.00 1,500.00 0.0140 πŸ“– Tx
1709233987000 Will Trump appear on Colorado primary ballot? Sell No βœ… $21.00 1,500.00 0.0140 πŸ“– Tx
1709233917000 Will Trump appear on Colorado primary ballot? Sell No βœ… $15.00 1,000.00 0.0150 πŸ“– Tx
1709233903000 Will Trump appear on Colorado primary ballot? Sell No βœ… $15.00 1,000.00 0.0150 πŸ“– Tx
1709233855000 SBF reduced sentence because autism? Sell Yes ❌ $57.72 222.00 0.2600 πŸ“– Tx
1709233855000 SBF reduced sentence because autism? Buy Yes βœ… $57.72 222.00 0.2600 πŸ“– Tx
1709233473000 SBF reduced sentence because autism? Sell Yes ❌ $195.00 750.00 0.2600 πŸ“– Tx
1709233473000 SBF reduced sentence because autism? Sell Yes ❌ $108.00 400.00 0.2700 πŸ“– Tx
1709233423000 Bitcoin all time high by next Friday? Sell Yes ❌ $67.65 205.00 0.3300 πŸ“– Tx
1709233348000 Will there be a US government shutdown by Mar 9? Sell Yes ❌ $16.40 205.00 0.0800 πŸ“– Tx
1709232828000 Will Trump appear on Colorado primary ballot? Sell No βœ… $1.20 80.20 0.0150 πŸ“– Tx
1709232720000 Bitcoin all time high by Friday? Sell Yes ❌ $6.15 205.00 0.0300 πŸ“– Tx
1709232642000 Will Fani Willis be removed from Trump case? Sell No βœ… $850.00 1,000.00 0.8500 πŸ“– Tx
1709232272000 Bitcoin all time high by next Friday? Sell Yes ❌ $79.95 205.00 0.3900 πŸ“– Tx
1709231840000 Bitcoin all time high by Friday? Sell Yes ❌ $10.25 205.00 0.0500 πŸ“– Tx
1709231630000 Will Trump appear on Colorado primary ballot? Sell No βœ… $1.20 80.20 0.0150 πŸ“– Tx
1709231518000 Will Barbara Lee advance from the 2024 CA Senate Primary? Buy Yes βœ… $22.20 740.00 0.0300 πŸ“– Tx
1709231110000 Will U.S. Supreme Court vote to reinstate Trump on Colorado's 2024 ballot? Sell Yes ❌ $95.00 250.00 0.3800 πŸ“– Tx
1709230430000 Will BTC hit $80,000 in March? Sell Yes ❌ $0.82 8.23 0.1000 πŸ“– Tx
1709230174000 Bitcoin all time high by next Friday? Sell Yes ❌ $17.60 44.00 0.4000 πŸ“– Tx
1709230100000 Israel x Hamas ceasefire by Monday? Sell No βœ… $26.32 27.70 0.9500 πŸ“– Tx
1709230050000 Will Mitch McConnell endorse Trump before Super Tuesday? Sell Yes ❌ $14.94 248.94 0.0600 πŸ“– Tx
1709229748000 Will there be a US government shutdown by Mar 9? Sell Yes ❌ $1.04 13.04 0.0800 πŸ“– Tx
1709229744000 Bitcoin all time high by Friday? Sell Yes ❌ $11.80 196.69 0.0600 πŸ“– Tx
1709229462000 Kate Middleton appearance by Sunday? Sell Yes ❌ $3.91 78.15 0.0500 πŸ“– Tx
1709229190000 Trump jail before election day? Sell Yes ❌ $325.00 2,500.00 0.1300 πŸ“– Tx
1709229176000 Will BTC hit $65,000 in March? Sell No βœ… $114.24 816.00 0.1400 πŸ“– Tx
1709229176000 Will BTC hit $65,000 in March? Sell Yes ❌ $701.76 816.00 0.8600 πŸ“– Tx
1709228512000 Fani Willis off Georgia case by Feb 29? Sell Yes ❌ $1.18 235.71 0.0050 πŸ“– Tx
1709228232000 Will Trump appear on Maine primary ballot? Sell No βœ… $11.00 1,000.00 0.0110 πŸ“– Tx
1709227680000 Bitcoin all time high by Friday? Sell No βœ… $186.55 205.00 0.9100 πŸ“– Tx
1709227678000 Israel x Hamas ceasefire before April? Sell No βœ… $80.00 250.00 0.3200 πŸ“– Tx
1709227634000 NVIDIA flips Apple in market cap by April 30? Sell No βœ… $51.92 59.00 0.8800 πŸ“– Tx
1709227564000 Israel + Hamas hostage deal by Ramadan? Sell No βœ… $117.50 250.00 0.4700 πŸ“– Tx
1709227344000 Bryan Johnson's functional sperm above 20.0 M/ejac on next test? Sell No βœ… $168.00 400.00 0.4200 πŸ“– Tx
1709226988000 Ethereum ETF approved by May 31? Sell Yes ❌ $52.81 120.02 0.4400 πŸ“– Tx
1709226503000 Will Israel invade Lebanon before March? Sell No βœ… $629.36 636.36 0.9890 πŸ“– Tx
1709226306000 Bitcoin all time high by Friday? Sell Yes ❌ $16.57 184.12 0.0900 πŸ“– Tx
1709226294000 Bitcoin all time high by Friday? Sell Yes ❌ $0.80 8.93 0.0900 πŸ“– Tx
1709226258000 Will Israel invade Lebanon before March? Sell No βœ… $8.13 8.22 0.9890 πŸ“– Tx
1709226196000 Bitcoin all time high by Friday? Sell Yes ❌ $1.08 11.95 0.0900 πŸ“– Tx
1709225320000 Bitcoin all time high by next Friday? Sell No βœ… $104.55 205.00 0.5100 πŸ“– Tx
1709225164000 Bitcoin all time high by next Friday? Sell Yes ❌ $88.15 205.00 0.4300 πŸ“– Tx
1709224790000 Bitcoin all time high by next Friday? Sell Yes ❌ $100.45 205.00 0.4900 πŸ“– Tx
1709224512000 Bitcoin all time high by Friday? Sell Yes ❌ $22.00 200.00 0.1100 πŸ“– Tx
1709224092000 Fani Willis off Georgia case by Feb 29? Sell Yes ❌ $5.60 1,120.68 0.0050 πŸ“– Tx
1709223802000 'Dune 2' bigger opening weekend than 'Dune'? Buy Yes βœ… $69.93 70.00 0.9990 πŸ“– Tx
1709223678000 Trump jail before election day? Buy No ❌ $219.70 258.47 0.8500 πŸ“– Tx
1709223678000 Trump jail before election day? Buy No ❌ $166.00 200.00 0.8300 πŸ“– Tx
1709223678000 Trump jail before election day? Buy No ❌ $3,825.51 4,665.25 0.8200 πŸ“– Tx
1709223678000 Trump jail before election day? Buy No ❌ $182.04 222.00 0.8200 πŸ“– Tx
1709223678000 Trump jail before election day? Buy No ❌ $1,245.00 1,500.00 0.8300 πŸ“– Tx
1709223678000 Trump jail before election day? Buy No ❌ $1,866.48 2,222.00 0.8400 πŸ“– Tx
1709223678000 Trump jail before election day? Buy No ❌ $4,321.62 5,084.26 0.8500 πŸ“– Tx
1709223678000 Trump jail before election day? Buy No ❌ $164.00 200.00 0.8200 πŸ“– Tx
1709223678000 Trump jail before election day? Sell Yes ❌ $578.00 3,400.00 0.1700 πŸ“– Tx
1709223678000 Trump jail before election day? Buy No ❌ $274.50 334.75 0.8200 πŸ“– Tx
1709223678000 Trump jail before election day? Sell Yes ❌ $640.00 4,000.00 0.1600 πŸ“– Tx
1709223678000 Trump jail before election day? Buy No ❌ $3,746.23 4,407.33 0.8500 πŸ“– Tx
1709223678000 Trump jail before election day? Sell Yes ❌ $135.00 750.00 0.1800 πŸ“– Tx
1709223678000 Trump jail before election day? Buy No ❌ $545.45 665.18 0.8200 πŸ“– Tx
1709223678000 Trump jail before election day? Sell No βœ… $23,813.77 28,463.76 0.8366 πŸ“– Tx
1709223678000 Trump jail before election day? Buy No ❌ $460.25 554.52 0.8300 πŸ“– Tx
1709223532000 Will Kamala Harris be the Democratic VP nominee? Sell Yes ❌ $3.85 5.00 0.7700 πŸ“– Tx
1709223150000 Will Kamala Harris be the Democratic VP nominee? Sell No βœ… $175.03 761.00 0.2300 πŸ“– Tx
1709223150000 Will Kamala Harris be the Democratic VP nominee? Sell No βœ… $46.00 200.00 0.2300 πŸ“– Tx
1709223150000 Will Kamala Harris be the Democratic VP nominee? Sell Yes ❌ $1,663.97 2,161.00 0.7700 πŸ“– Tx
1709223150000 Will Kamala Harris be the Democratic VP nominee? Buy Yes βœ… $539.00 700.00 0.7700 πŸ“– Tx
1709223150000 Will Kamala Harris be the Democratic VP nominee? Buy Yes βœ… $385.00 500.00 0.7700 πŸ“– Tx
1709223038000 Will 2024 be the hottest year on record? Sell No βœ… $146.52 333.00 0.4400 πŸ“– Tx
1709223038000 Will 2024 be the hottest year on record? Sell No βœ… $86.00 200.00 0.4300 πŸ“– Tx
1709223038000 Will 2024 be the hottest year on record? Sell No βœ… $430.00 1,000.00 0.4300 πŸ“– Tx
1709223038000 Will 2024 be the hottest year on record? Buy Yes βœ… $314.91 552.48 0.5700 πŸ“– Tx
1709223038000 Will 2024 be the hottest year on record? Buy Yes βœ… $168.00 300.00 0.5600 πŸ“– Tx